Time;durP1;ratioP1;P1;durP2;ratioP2;P2;SDS_P1;SDS_P2;PMS_P1;PMS_P2;Temp;Humidity;BMP_temperature;BMP_pressure;BME280_temperature;BME280_humidity;BME280_pressure;Samples;Min_cycle;Max_cycle;Signal;HPM_P1;HPM_P2
2022/06/06 00:02:14;;;;;;;9.60;6.20;;;;;;;15.93;50.11;100533.07;110566;1253;23689;-74
2022/06/06 00:04:43;;;;;;;7.00;4.70;;;;;;;15.90;50.20;100531.66;110864;1252;22265;-75
2022/06/06 00:07:13;;;;;;;7.10;5.70;;;;;;;15.87;50.24;100531.28;110625;1254;23003;-75
2022/06/06 00:09:42;;;;;;;7.20;5.60;;;;;;;15.86;50.30;100525.62;110812;1251;22088;-75
2022/06/06 00:12:12;;;;;;;7.40;5.30;;;;;;;15.84;50.35;100522.30;110814;1254;23055;-75
2022/06/06 00:14:43;;;;;;;6.80;5.60;;;;;;;15.82;50.48;100522.33;110606;1254;21962;-75
2022/06/06 00:17:13;;;;;;;7.00;5.00;;;;;;;15.79;50.47;100517.05;110845;1254;22318;-76
2022/06/06 00:19:42;;;;;;;6.80;5.20;;;;;;;15.78;50.69;100515.17;110456;1256;23705;-76
2022/06/06 00:22:11;;;;;;;9.00;5.20;;;;;;;15.76;50.68;100510.40;110337;1257;23709;-75
2022/06/06 00:24:40;;;;;;;7.10;4.90;;;;;;;15.75;50.69;100513.85;110196;1257;21975;-76
2022/06/06 00:27:09;;;;;;;6.20;4.80;;;;;;;15.73;50.65;100509.99;110180;1256;21935;-76
2022/06/06 00:29:38;;;;;;;8.30;6.00;;;;;;;15.72;50.77;100507.02;110193;1257;21970;-75
2022/06/06 00:34:58;;;;;;;5.50;5.00;;;;;;;15.68;50.92;100508.73;110534;1257;23016;-76
2022/06/06 00:37:32;;;;;;;6.90;4.80;;;;;;;15.67;51.07;100507.11;110496;1254;22910;-75
2022/06/06 00:40:03;;;;;;;7.20;4.80;;;;;;;15.67;51.12;100502.90;110763;1252;22991;-76
2022/06/06 00:42:39;;;;;;;5.40;4.90;;;;;;;15.66;51.17;100500.48;110620;1254;23949;-76
2022/06/06 00:45:20;;;;;;;7.30;5.50;;;;;;;15.64;51.37;100497.01;110736;1253;22036;-77
2022/06/06 00:48:22;;;;;;;7.40;4.80;;;;;;;15.63;51.43;100497.28;110934;1253;22572;-76
2022/06/06 00:51:04;;;;;;;5.80;5.10;;;;;;;15.60;51.55;100505.84;110719;1253;21978;-76
2022/06/06 00:53:46;;;;;;;6.60;5.10;;;;;;;15.57;51.59;100505.86;110666;1254;22964;-76
2022/06/06 00:56:26;;;;;;;7.30;6.00;;;;;;;15.56;51.67;100498.55;110667;1254;21971;-76
2022/06/06 00:59:01;;;;;;;7.10;5.30;;;;;;;15.56;51.85;100491.85;110840;1254;22389;-76
2022/06/06 01:01:34;;;;;;;5.20;4.60;;;;;;;15.56;51.87;100492.58;110588;1254;23580;-76
2022/06/06 01:04:05;;;;;;;6.30;5.40;;;;;;;15.52;51.93;100496.70;110706;1254;22814;-76
2022/06/06 01:06:39;;;;;;;9.30;5.70;;;;;;;15.47;52.06;100496.84;110672;1254;21962;-75
2022/06/06 01:09:09;;;;;;;8.00;5.70;;;;;;;15.43;52.27;100494.92;110546;1254;21961;-75
2022/06/06 01:11:44;;;;;;;7.30;6.20;;;;;;;15.41;52.34;100493.94;110579;1254;23014;-75
2022/06/06 01:14:18;;;;;;;7.30;5.20;;;;;;;15.41;52.60;100491.30;110580;1252;23635;-75
2022/06/06 01:16:54;;;;;;;8.80;6.50;;;;;;;15.39;52.59;100493.66;110208;1257;21997;-75
2022/06/06 01:19:48;;;;;;;6.60;5.90;;;;;;;15.36;52.82;100492.84;110384;1257;21968;-74
2022/06/06 01:23:06;;;;;;;9.80;5.50;;;;;;;15.33;52.88;100492.48;110325;1257;23608;-74
2022/06/06 01:25:44;;;;;;;6.90;6.20;;;;;;;15.28;53.06;100490.20;110369;1257;21985;-75
2022/06/06 01:29:08;;;;;;;6.30;5.70;;;;;;;15.25;53.19;100486.91;110418;1257;23032;-75
2022/06/06 01:32:05;;;;;;;10.20;5.40;;;;;;;15.25;53.49;100478.60;110443;1257;21967;-75
2022/06/06 01:34:40;;;;;;;6.30;5.30;;;;;;;15.25;53.54;100472.70;109063;1266;23667;-75
2022/06/06 01:37:34;;;;;;;9.30;5.40;;;;;;;15.24;53.69;100467.55;108995;1270;21994;-75
2022/06/06 01:40:16;;;;;;;6.60;5.80;;;;;;;15.22;53.95;100467.05;108730;1270;21965;-75
2022/06/06 01:43:01;;;;;;;8.70;5.70;;;;;;;15.20;54.11;100465.72;108958;1270;22129;-75
2022/06/06 01:46:05;;;;;;;9.40;6.80;;;;;;;15.17;54.10;100464.35;108890;1270;22086;-75
2022/06/06 01:48:43;;;;;;;7.90;5.70;;;;;;;15.14;54.42;100464.98;108915;1270;21981;-75
2022/06/06 01:51:24;;;;;;;6.60;6.00;;;;;;;15.11;54.46;100468.11;108556;1274;21981;-75
2022/06/06 01:53:54;;;;;;;7.80;7.00;;;;;;;15.08;54.61;100471.73;108976;1270;23817;-76
2022/06/06 01:56:31;;;;;;;7.70;6.70;;;;;;;15.04;54.75;100469.63;109291;1267;22307;-75
2022/06/06 01:59:03;;;;;;;9.10;7.10;;;;;;;15.01;54.90;100466.16;109261;1263;23656;-75
2022/06/06 02:01:32;;;;;;;8.70;7.00;;;;;;;15.00;55.02;100466.15;108891;1270;23054;-75
2022/06/06 02:04:02;;;;;;;7.50;6.80;;;;;;;14.99;55.26;100465.29;108986;1270;21966;-75
2022/06/06 02:06:31;;;;;;;9.80;6.40;;;;;;;15.02;55.57;100459.79;108892;1270;21986;-75
2022/06/06 02:09:00;;;;;;;8.00;6.90;;;;;;;15.05;55.44;100458.37;109026;1265;21976;-74
2022/06/06 02:11:29;;;;;;;8.60;6.40;;;;;;;15.03;55.50;100448.29;109780;1257;21962;-75
2022/06/06 02:13:58;;;;;;;8.10;7.30;;;;;;;15.01;55.66;100440.83;110357;1257;22077;-75
2022/06/06 02:16:28;;;;;;;8.10;7.10;;;;;;;14.99;55.84;100438.08;110442;1257;21965;-75
2022/06/06 02:18:57;;;;;;;9.10;7.40;;;;;;;14.98;55.97;100437.62;110367;1254;23599;-75
2022/06/06 02:21:26;;;;;;;7.40;6.80;;;;;;;14.97;56.02;100434.95;110540;1254;23625;-75
2022/06/06 02:23:55;;;;;;;7.40;6.70;;;;;;;14.97;56.07;100432.81;110567;1254;22387;-75
2022/06/06 02:26:25;;;;;;;8.20;7.40;;;;;;;14.98;56.28;100425.21;110526;1254;22068;-75
2022/06/06 02:28:54;;;;;;;8.60;7.80;;;;;;;15.00;56.37;100415.52;110488;1254;23596;-76
2022/06/06 02:31:23;;;;;;;9.30;8.40;;;;;;;15.01;56.48;100408.66;110541;1254;23694;-74
2022/06/06 02:33:52;;;;;;;11.10;10.00;;;;;;;15.02;56.54;100406.90;110395;1252;23046;-74
2022/06/06 02:36:22;;;;;;;13.60;10.40;;;;;;;15.00;56.59;100407.51;110318;1257;23627;-74
2022/06/06 02:38:51;;;;;;;10.60;9.50;;;;;;;15.00;56.70;100412.59;110128;1257;23710;-74
2022/06/06 02:41:22;;;;;;;9.60;8.90;;;;;;;14.97;56.72;100419.81;110433;1257;23685;-77
2022/06/06 02:43:52;;;;;;;10.20;9.20;;;;;;;14.90;56.69;100415.91;110460;1257;23803;-75
2022/06/06 02:46:22;;;;;;;17.90;10.60;;;;;;;14.85;56.94;100413.21;110065;1258;21975;-75
2022/06/06 02:48:52;;;;;;;11.60;10.50;;;;;;;14.85;57.15;100412.73;110288;1257;21959;-76
2022/06/06 02:51:29;;;;;;;11.20;10.00;;;;;;;14.84;57.34;100415.98;110368;1257;21982;-75
2022/06/06 02:54:03;;;;;;;10.30;9.30;;;;;;;14.83;57.38;100422.54;110115;1255;21967;-76
2022/06/06 02:56:35;;;;;;;12.20;10.70;;;;;;;14.81;57.49;100423.63;110620;1254;22023;-76
2022/06/06 02:59:08;;;;;;;10.30;9.30;;;;;;;14.80;57.77;100420.26;110839;1254;23671;-76
2022/06/06 03:01:44;;;;;;;13.20;10.60;;;;;;;14.77;58.08;100419.30;110615;1254;21955;-75
2022/06/06 03:04:16;;;;;;;12.40;11.40;;;;;;;14.75;58.16;100418.79;110475;1254;24349;-75
2022/06/06 03:06:55;;;;;;;12.30;9.70;;;;;;;14.72;58.42;100427.70;110594;1254;21976;-75
2022/06/06 03:10:13;;;;;;;11.40;10.20;;;;;;;14.74;58.78;100437.31;110486;1255;23681;-74
2022/06/06 03:13:37;;;;;;;12.50;11.40;;;;;;;14.77;58.99;100449.00;110510;1254;21961;-75
2022/06/06 03:20:47;;;;;;;13.90;11.20;;;;;;;14.89;59.23;100445.33;109536;1265;21968;-75
2022/06/06 03:24:03;;;;;;;11.90;10.70;;;;;;;14.90;59.02;100444.19;108832;1271;22042;-74
2022/06/06 03:27:23;;;;;;;12.10;11.00;;;;;;;14.86;59.01;100441.16;108434;1276;21987;-75
2022/06/06 03:30:13;;;;;;;12.10;10.30;;;;;;;14.81;59.40;100447.92;108534;1276;24320;-74
2022/06/06 03:32:58;;;;;;;11.10;9.80;;;;;;;14.82;59.64;100461.27;108488;1276;23052;-74
2022/06/06 03:35:52;;;;;;;11.40;10.30;;;;;;;14.89;59.99;100472.98;108773;1272;21992;-74
2022/06/06 03:38:53;;;;;;;10.30;8.80;;;;;;;15.00;60.00;100477.95;108840;1270;23045;-75
2022/06/06 03:42:10;;;;;;;11.30;10.40;;;;;;;15.09;60.04;100477.34;108798;1270;22992;-74
2022/06/06 03:44:48;;;;;;;11.60;10.30;;;;;;;15.22;60.22;100479.08;108930;1267;24134;-75
2022/06/06 03:47:39;;;;;;;12.80;9.60;;;;;;;15.33;60.01;100469.35;109322;1266;23067;-74
2022/06/06 03:50:45;;;;;;;11.00;9.90;;;;;;;15.40;59.91;100463.55;108978;1267;23757;-74
2022/06/06 03:53:34;;;;;;;11.10;10.10;;;;;;;15.41;59.84;100463.79;109405;1260;23736;-75
2022/06/06 03:56:33;;;;;;;10.30;9.30;;;;;;;15.45;59.94;100471.73;109293;1263;22079;-75
2022/06/06 03:59:03;;;;;;;10.30;9.40;;;;;;;15.52;60.11;100476.71;110270;1257;21966;-75
2022/06/06 04:01:36;;;;;;;10.50;9.50;;;;;;;15.61;59.99;100478.52;110238;1257;22041;-75
2022/06/06 04:04:07;;;;;;;11.90;9.70;;;;;;;15.72;59.99;100478.30;109885;1260;21977;-75
2022/06/06 04:06:36;;;;;;;10.00;9.10;;;;;;;15.85;60.09;100475.13;110034;1257;22018;-75
2022/06/06 04:09:06;;;;;;;12.70;8.90;;;;;;;16.02;60.12;100474.86;110095;1259;21999;-75
2022/06/06 04:12:00;;;;;;;15.20;9.80;;;;;;;16.16;59.86;100466.77;109696;1260;22740;-75
2022/06/06 04:15:15;;;;;;;11.10;9.50;;;;;;;16.27;59.56;100460.61;110318;1254;23087;-75
2022/06/06 04:18:15;;;;;;;11.80;9.60;;;;;;;16.39;59.67;100459.86;110026;1259;21985;-75
2022/06/06 04:21:16;;;;;;;10.60;9.50;;;;;;;16.59;59.63;100458.08;110007;1259;22070;-75
2022/06/06 04:24:05;;;;;;;11.80;9.60;;;;;;;16.71;59.06;100454.95;109978;1260;23647;-74
2022/06/06 04:26:54;;;;;;;9.70;8.70;;;;;;;16.81;58.87;100444.39;110016;1260;21970;-74
2022/06/06 04:30:27;;;;;;;10.20;9.10;;;;;;;16.90;58.67;100443.84;109934;1260;21982;-74
2022/06/06 04:33:14;;;;;;;10.20;9.30;;;;;;;16.97;58.61;100441.50;108820;1272;22006;-74
2022/06/06 04:36:02;;;;;;;10.50;9.50;;;;;;;17.01;58.51;100433.98;108769;1272;22009;-74
2022/06/06 04:39:08;;;;;;;11.00;9.80;;;;;;;17.06;58.30;100421.62;108800;1272;22056;-75
2022/06/06 04:42:02;;;;;;;10.80;9.80;;;;;;;17.09;58.29;100421.70;108821;1272;21987;-74
2022/06/06 04:44:59;;;;;;;10.30;9.20;;;;;;;17.14;58.43;100423.20;108809;1272;21994;-75
2022/06/06 04:47:39;;;;;;;10.70;9.70;;;;;;;17.18;58.48;100421.13;108775;1272;23085;-74
2022/06/06 04:50:20;;;;;;;10.50;9.60;;;;;;;17.24;58.51;100424.48;108448;1273;22100;-75
2022/06/06 04:52:58;;;;;;;12.50;10.50;;;;;;;17.30;58.41;100428.73;108761;1272;21994;-75
2022/06/06 04:55:30;;;;;;;11.40;10.40;;;;;;;17.35;58.58;100429.01;108743;1267;23119;-76
2022/06/06 04:58:04;;;;;;;12.10;10.20;;;;;;;17.38;58.69;100428.71;109130;1267;22927;-75
2022/06/06 05:00:37;;;;;;;13.30;10.50;;;;;;;17.44;58.95;100431.36;109111;1267;22059;-76
2022/06/06 05:03:07;;;;;;;14.00;9.50;;;;;;;17.52;58.87;100428.30;108859;1267;22055;-73
2022/06/06 05:06:15;;;;;;;13.80;10.50;;;;;;;17.56;58.69;100432.84;108875;1269;23650;-73
2022/06/06 05:09:54;;;;;;;11.60;10.40;;;;;;;17.50;58.11;100429.95;109052;1260;22762;-75
2022/06/06 05:13:18;;;;;;;13.10;10.60;;;;;;;17.35;58.45;100419.61;108817;1270;21997;-75
2022/06/06 05:16:05;;;;;;;12.80;11.10;;;;;;;17.40;59.19;100416.05;108831;1270;21995;-75
2022/06/06 05:18:58;;;;;;;17.00;10.60;;;;;;;17.55;59.35;100414.15;108856;1270;23097;-74
2022/06/06 05:22:03;;;;;;;10.90;9.90;;;;;;;17.71;59.25;100414.45;108861;1270;22010;-75
2022/06/06 05:24:52;;;;;;;12.10;10.90;;;;;;;17.90;59.23;100409.48;108851;1270;22039;-74
2022/06/06 05:27:34;;;;;;;15.70;11.40;;;;;;;18.08;58.99;100405.72;108588;1276;22977;-75
2022/06/06 05:30:40;;;;;;;11.40;10.30;;;;;;;18.27;58.93;100399.13;108407;1276;23546;-74
2022/06/06 05:33:24;;;;;;;9.50;8.60;;;;;;;18.50;58.27;100399.83;108417;1277;22165;-74
2022/06/06 05:36:24;;;;;;;10.60;9.70;;;;;;;18.67;57.74;100391.86;108319;1277;22055;-75
2022/06/06 05:39:37;;;;;;;12.00;8.50;;;;;;;18.91;57.72;100391.23;108412;1276;22822;-74
2022/06/06 05:42:33;;;;;;;11.60;9.50;;;;;;;19.18;57.21;100395.30;108421;1276;22003;-74
2022/06/06 05:45:42;;;;;;;10.90;8.70;;;;;;;19.42;56.45;100399.15;108537;1268;24132;-75
2022/06/06 05:48:43;;;;;;;10.50;8.90;;;;;;;19.74;56.36;100402.89;110036;1260;21994;-79
2022/06/06 05:51:38;;;;;;;9.40;8.50;;;;;;;20.15;55.83;100407.77;110605;1252;21959;-75
2022/06/06 05:54:52;;;;;;;11.70;8.50;;;;;;;20.55;54.76;100409.21;110108;1257;23691;-75
2022/06/06 05:58:12;;;;;;;9.70;8.50;;;;;;;21.06;53.95;100407.75;110348;1257;23575;-75
2022/06/06 06:01:47;;;;;;;8.30;7.60;;;;;;;21.59;52.75;100409.94;110277;1257;22433;-75
2022/06/06 06:04:45;;;;;;;11.20;7.40;;;;;;;22.11;50.58;100411.73;108915;1269;22136;-75
2022/06/06 06:08:07;;;;;;;8.30;7.50;;;;;;;22.35;48.94;100411.89;108854;1269;22000;-74
2022/06/06 06:11:27;;;;;;;7.30;6.50;;;;;;;22.42;47.75;100415.73;108611;1273;23591;-75
2022/06/06 06:14:55;;;;;;;7.20;6.30;;;;;;;22.55;48.02;100417.11;108848;1270;22014;-76
2022/06/06 06:17:50;;;;;;;8.70;7.00;;;;;;;22.66;47.53;100411.10;108892;1270;23192;-76
2022/06/06 06:20:33;;;;;;;7.50;6.90;;;;;;;22.68;47.01;100407.83;108752;1271;21980;-75
2022/06/06 06:23:14;;;;;;;7.20;6.30;;;;;;;22.54;46.61;100410.58;109107;1267;22099;-76
2022/06/06 06:25:53;;;;;;;12.60;7.10;;;;;;;22.37;46.95;100404.12;109196;1266;22012;-75
2022/06/06 06:28:25;;;;;;;7.20;6.50;;;;;;;22.40;48.01;100404.39;109218;1265;23037;-74
2022/06/06 06:31:17;;;;;;;12.00;6.80;;;;;;;22.69;48.63;100401.65;109021;1263;23049;-76
2022/06/06 06:34:06;;;;;;;8.00;7.20;;;;;;;23.26;47.64;100401.39;109083;1267;21973;-75
2022/06/06 06:37:28;;;;;;;10.20;6.80;;;;;;;23.56;46.08;100395.00;109156;1264;22080;-75
2022/06/06 06:40:32;;;;;;;7.50;6.80;;;;;;;23.64;45.36;100389.11;109533;1260;21979;-74
2022/06/06 06:43:37;;;;;;;7.20;5.80;;;;;;;23.90;45.43;100390.86;110096;1260;22736;-76
2022/06/06 06:46:19;;;;;;;6.60;5.90;;;;;;;24.19;44.80;100391.14;109954;1260;21972;-76
2022/06/06 06:48:53;;;;;;;6.60;6.00;;;;;;;24.42;43.39;100390.95;110753;1253;23104;-78
2022/06/06 06:51:36;;;;;;;8.50;6.10;;;;;;;24.54;42.87;100390.73;110879;1252;21966;-77
2022/06/06 06:54:39;;;;;;;6.50;5.90;;;;;;;24.71;42.65;100393.86;110321;1257;22029;-79
2022/06/06 06:57:48;;;;;;;7.80;6.00;;;;;;;24.86;42.40;100394.11;109832;1260;21966;-80
2022/06/06 07:00:51;;;;;;;7.00;6.30;;;;;;;25.17;42.69;100393.27;110059;1257;21995;-80
2022/06/06 07:10:31;;;;;;;7.60;6.10;;;;;;;26.02;40.98;100394.31;110287;1259;23774;-78
2022/06/06 07:13:30;;;;;;;5.70;4.90;;;;;;;26.19;40.17;100397.63;110533;1254;23761;-78
2022/06/06 07:16:24;;;;;;;9.30;5.70;;;;;;;26.41;40.17;100396.21;110657;1252;21960;-78
2022/06/06 07:19:06;;;;;;;6.50;5.80;;;;;;;26.56;39.13;100390.00;110680;1254;21983;-77
2022/06/06 07:21:38;;;;;;;8.50;6.10;;;;;;;26.44;39.22;100387.11;110053;1257;22010;-77
2022/06/06 07:24:14;;;;;;;6.20;5.60;;;;;;;26.35;39.46;100386.63;110172;1257;24276;-79
2022/06/06 07:26:45;;;;;;;6.60;5.50;;;;;;;26.41;39.33;100386.30;109911;1261;24301;-77
2022/06/06 07:29:20;;;;;;;10.00;5.50;;;;;;;26.53;39.35;100379.05;109162;1267;21982;-77
2022/06/06 07:32:09;;;;;;;5.50;5.00;;;;;;;26.70;39.01;100379.02;108980;1265;23791;-78
2022/06/06 07:35:10;;;;;;;8.10;6.20;;;;;;;26.89;39.02;100376.32;109123;1266;21973;-78
2022/06/06 07:37:55;;;;;;;5.80;5.30;;;;;;;27.09;38.41;100385.16;108967;1267;21973;-79
2022/06/06 07:41:11;;;;;;;6.70;5.30;;;;;;;27.24;38.11;100386.36;109285;1267;23155;-77
2022/06/06 07:44:18;;;;;;;7.50;5.40;;;;;;;27.48;38.56;100382.23;108851;1267;23700;-78
2022/06/06 07:47:11;;;;;;;6.90;5.50;;;;;;;27.82;38.23;100384.83;110055;1257;21955;-77
2022/06/06 07:50:03;;;;;;;6.70;6.10;;;;;;;27.84;36.79;100378.84;110344;1255;23583;-77
2022/06/06 07:53:04;;;;;;;6.40;5.60;;;;;;;27.82;37.39;100379.98;110305;1255;22430;-77
2022/06/06 07:55:57;;;;;;;7.10;5.00;;;;;;;27.85;36.98;100380.14;110753;1251;22028;-78
2022/06/06 07:59:02;;;;;;;6.60;5.70;;;;;;;27.87;36.94;100380.61;110710;1253;21972;-78
2022/06/06 08:02:42;;;;;;;5.60;5.10;;;;;;;27.77;36.54;100378.17;110575;1253;22074;-78
2022/06/06 08:05:35;;;;;;;6.80;6.00;;;;;;;27.66;36.82;100379.16;110553;1252;21959;-78
2022/06/06 08:08:40;;;;;;;6.50;5.60;;;;;;;27.59;37.03;100377.24;110306;1257;21957;-77
2022/06/06 08:11:30;;;;;;;7.70;5.90;;;;;;;27.58;37.33;100379.52;109608;1262;23092;-77
2022/06/06 08:14:11;;;;;;;6.20;5.70;;;;;;;27.61;37.68;100382.00;109671;1263;21973;-78
2022/06/06 08:16:54;;;;;;;;;;;;;;;27.81;37.51;100381.19;108502;1270;600626;-78
2022/06/06 08:19:59;;;;;;;7.60;5.50;;;;;;;27.89;36.90;100381.41;108937;1267;23113;-79
2022/06/06 08:22:38;;;;;;;11.20;5.20;;;;;;;27.99;36.79;100380.41;109573;1267;23665;-78
2022/06/06 08:25:11;;;;;;;7.80;5.70;;;;;;;28.12;36.41;100384.56;109387;1266;23703;-77
2022/06/06 08:27:48;;;;;;;7.70;5.90;;;;;;;28.16;36.58;100384.37;109497;1263;23605;-78
2022/06/06 08:30:20;;;;;;;5.60;5.10;;;;;;;28.21;36.49;100384.80;109578;1264;23595;-77
2022/06/06 08:32:56;;;;;;;6.90;5.80;;;;;;;28.25;36.19;100386.85;109571;1264;22048;-78
2022/06/06 08:36:03;;;;;;;7.20;5.40;;;;;;;28.41;36.34;100391.94;109904;1259;22773;-78
2022/06/06 08:38:50;;;;;;;6.00;5.40;;;;;;;28.50;36.16;100391.59;109979;1260;21983;-79
2022/06/06 08:41:51;;;;;;;6.20;5.60;;;;;;;28.82;36.05;100386.80;109376;1264;21999;-79
2022/06/06 08:44:37;;;;;;;6.60;5.40;;;;;;;29.09;35.34;100384.36;109494;1264;23634;-78
2022/06/06 08:47:27;;;;;;;6.20;5.60;;;;;;;29.26;34.79;100377.29;109457;1264;21969;-77
2022/06/06 08:50:46;;;;;;;6.30;5.70;;;;;;;29.23;34.49;100377.16;110011;1257;23587;-78
2022/06/06 08:54:21;;;;;;;5.50;5.10;;;;;;;29.14;34.94;100378.69;110107;1258;21997;-79
2022/06/06 08:57:04;;;;;;;6.20;5.60;;;;;;;28.98;35.20;100370.27;110447;1257;23746;-78
2022/06/06 09:00:17;;;;;;;6.50;5.50;;;;;;;28.92;35.65;100365.16;110692;1250;22751;-77
2022/06/06 09:03:30;;;;;;;6.20;5.40;;;;;;;28.85;35.78;100360.73;109614;1263;22045;-78
2022/06/06 09:06:20;;;;;;;8.20;5.70;;;;;;;28.73;36.07;100360.97;109559;1264;22840;-79
2022/06/06 09:08:58;;;;;;;6.40;5.90;;;;;;;28.63;36.13;100360.77;109403;1264;21991;-78
2022/06/06 09:11:43;;;;;;;6.80;6.20;;;;;;;28.53;36.22;100363.47;109209;1262;23620;-78
2022/06/06 09:14:50;;;;;;;6.50;5.80;;;;;;;28.43;36.73;100365.52;109394;1263;21974;-78
2022/06/06 09:17:49;;;;;;;8.00;5.20;;;;;;;28.32;36.43;100365.55;108883;1273;24332;-78
2022/06/06 09:20:47;;;;;;;7.90;6.10;;;;;;;28.09;36.76;100359.65;109019;1267;22753;-77
2022/06/06 09:23:52;;;;;;;6.50;5.80;;;;;;;27.98;37.32;100356.77;109772;1264;21985;-78
2022/06/06 09:27:15;;;;;;;7.20;5.70;;;;;;;28.02;38.01;100358.73;110559;1264;22005;-77
2022/06/06 09:30:49;;;;;;;7.00;5.60;;;;;;;28.04;37.92;100357.95;109497;1264;22046;-78
2022/06/06 09:34:24;;;;;;;6.40;5.80;;;;;;;28.09;37.84;100361.66;109225;1265;24045;-77
2022/06/06 09:37:12;;;;;;;9.00;6.40;;;;;;;28.03;37.29;100357.20;108879;1267;21975;-78
2022/06/06 09:40:28;;;;;;;7.80;6.70;;;;;;;27.79;37.47;100354.00;108771;1270;21994;-78
2022/06/06 09:43:55;;;;;;;6.80;6.10;;;;;;;27.74;38.23;100353.92;108954;1270;22062;-77
2022/06/06 09:46:59;;;;;;;8.00;6.00;;;;;;;28.12;39.00;100358.33;108498;1276;21975;-77
2022/06/06 09:50:08;;;;;;;6.20;5.70;;;;;;;28.41;37.82;100357.45;108219;1282;23641;-77
2022/06/06 09:52:55;;;;;;;7.50;6.30;;;;;;;28.53;37.47;100351.98;108385;1282;22144;-78
2022/06/06 09:59:50;;;;;;;7.10;6.00;;;;;;;28.95;37.21;100347.19;109423;1269;22119;-78
2022/06/06 10:03:04;;;;;;;6.40;5.70;;;;;;;28.96;36.69;100345.43;109542;1270;21996;-77
2022/06/06 10:06:26;;;;;;;8.60;6.70;;;;;;;28.82;36.50;100346.75;109312;1270;22931;-78
2022/06/06 10:09:48;;;;;;;9.30;6.20;;;;;;;28.74;36.89;100345.86;108435;1276;23068;-78
2022/06/06 10:13:07;;;;;;;6.20;5.50;;;;;;;28.70;37.09;100349.05;108467;1276;21997;-78
2022/06/06 10:16:16;;;;;;;6.40;5.70;;;;;;;28.83;37.29;100349.88;108544;1274;22012;-79
2022/06/06 10:19:07;;;;;;;7.40;6.70;;;;;;;29.01;37.34;100350.77;109090;1273;22036;-77
2022/06/06 10:22:22;;;;;;;6.70;6.10;;;;;;;29.22;36.91;100350.48;109240;1276;21999;-78
2022/06/06 10:25:26;;;;;;;7.10;5.70;;;;;;;29.33;36.30;100345.64;109642;1264;23768;-77
2022/06/06 10:28:35;;;;;;;5.80;5.30;;;;;;;29.29;35.93;100343.85;110313;1264;23414;-78
2022/06/06 10:31:48;;;;;;;6.60;5.70;;;;;;;29.07;35.97;100343.03;109379;1264;21999;-77
2022/06/06 10:35:09;;;;;;;8.30;6.40;;;;;;;28.71;36.70;100340.61;110057;1264;21980;-78
2022/06/06 10:38:30;;;;;;;7.00;6.30;;;;;;;28.49;37.39;100348.14;109862;1264;22008;-78
2022/06/06 10:41:24;;;;;;;6.50;5.90;;;;;;;28.50;38.05;100347.13;110125;1264;22082;-78
2022/06/06 10:45:01;;;;;;;6.10;5.60;;;;;;;28.54;37.99;100344.21;110073;1264;21981;-78
2022/06/06 10:47:45;;;;;;;17.50;6.60;;;;;;;28.50;37.99;100341.48;110451;1258;23063;-78
2022/06/06 10:54:32;;;;;;;6.00;5.50;;;;;;;28.41;38.43;100340.91;111717;1250;22058;-78
2022/06/06 10:57:52;;;;;;;7.70;5.70;;;;;;;28.35;38.34;100339.86;111899;1250;22061;-78
2022/06/06 11:01:33;;;;;;;6.00;5.50;;;;;;;28.12;38.45;100338.44;111525;1249;21957;-78
2022/06/06 11:04:50;;;;;;;8.20;5.50;;;;;;;28.10;39.26;100330.05;110100;1260;23087;-77
2022/06/06 11:08:10;;;;;;;7.90;5.80;;;;;;;28.15;39.31;100329.30;110379;1262;22772;-77
2022/06/06 11:10:55;;;;;;;7.30;4.90;;;;;;;28.11;39.18;100328.52;109809;1262;21992;-78
2022/06/06 11:14:10;;;;;;;8.50;6.00;;;;;;;28.14;39.19;100330.28;110238;1262;22141;-78
2022/06/06 11:17:11;;;;;;;7.30;6.50;;;;;;;28.20;39.04;100326.48;110317;1262;23043;-77
2022/06/06 11:19:54;;;;;;;7.90;5.40;;;;;;;28.25;39.24;100322.15;110360;1262;21969;-79
2022/06/06 11:22:40;;;;;;;5.00;4.60;;;;;;;28.30;39.15;100323.95;109430;1263;21977;-78
2022/06/06 11:25:26;;;;;;;5.50;5.00;;;;;;;28.34;39.08;100325.54;109973;1262;21965;-78
2022/06/06 11:28:33;;;;;;;5.60;5.20;;;;;;;28.40;38.74;100324.69;110552;1259;22041;-79
2022/06/06 11:31:52;;;;;;;5.10;4.30;;;;;;;28.41;38.32;100325.15;111004;1257;21977;-78
2022/06/06 11:35:22;;;;;;;5.90;4.80;;;;;;;28.41;38.54;100324.36;110190;1263;22088;-78
2022/06/06 11:38:24;;;;;;;7.20;5.60;;;;;;;28.45;38.69;100329.05;109545;1269;22005;-78
2022/06/06 11:41:28;;;;;;;6.20;5.10;;;;;;;28.48;38.90;100328.58;109663;1265;23071;-79
2022/06/06 11:44:10;;;;;;;7.60;5.60;;;;;;;28.53;39.23;100332.81;109209;1266;21980;-78
2022/06/06 11:47:01;;;;;;;5.60;5.10;;;;;;;28.55;38.70;100333.67;109491;1264;23601;-78
2022/06/06 11:49:57;;;;;;;6.20;5.70;;;;;;;28.47;38.41;100332.13;109197;1267;21981;-78
2022/06/06 11:52:42;;;;;;;6.20;5.60;;;;;;;28.32;38.51;100331.77;108956;1266;23631;-78
2022/06/06 11:55:47;;;;;;;8.10;4.80;;;;;;;28.22;38.90;100334.45;109362;1265;21974;-78
2022/06/06 11:58:53;;;;;;;6.90;5.50;;;;;;;28.10;38.75;100335.36;108512;1276;22059;-78
2022/06/06 12:02:19;;;;;;;8.00;5.50;;;;;;;27.92;39.03;100336.38;108477;1276;22120;-77
2022/06/06 12:05:02;;;;;;;6.80;6.20;;;;;;;27.64;39.31;100336.98;108620;1276;22282;-78
2022/06/06 12:08:11;;;;;;;7.40;6.30;;;;;;;27.38;39.48;100338.30;108521;1276;22716;-77
2022/06/06 12:11:36;;;;;;;9.70;5.90;;;;;;;27.08;40.23;100336.95;108790;1270;22052;-78
2022/06/06 12:15:05;;;;;;;8.90;6.50;;;;;;;26.81;40.89;100337.59;109597;1264;21987;-78
2022/06/06 12:18:34;;;;;;;8.20;6.60;;;;;;;26.58;41.32;100338.35;109219;1266;24002;-78
2022/06/06 12:21:49;;;;;;;8.40;6.50;;;;;;;26.33;41.71;100340.81;108747;1273;21985;-78
2022/06/06 12:25:04;;;;;;;8.10;7.30;;;;;;;26.11;42.43;100345.27;108992;1270;23059;-77
2022/06/06 12:27:46;;;;;;;8.40;7.60;;;;;;;25.96;43.08;100344.08;109129;1269;23847;-82
2022/06/06 12:31:19;;;;;;;9.20;6.50;;;;;;;25.82;43.27;100338.58;109016;1271;23709;-83
2022/06/06 12:33:57;;;;;;;9.30;7.00;;;;;;;25.69;43.99;100338.87;108862;1273;21992;-79
2022/06/06 12:36:45;;;;;;;13.40;7.30;;;;;;;25.64;44.31;100338.44;109335;1266;21986;-79
2022/06/06 12:39:33;;;;;;;9.30;7.20;;;;;;;25.62;44.60;100338.69;109303;1263;22073;-77
2022/06/06 12:42:30;;;;;;;9.40;7.50;;;;;;;25.64;44.88;100332.85;109290;1263;21993;-76
2022/06/06 12:45:30;;;;;;;13.00;7.20;;;;;;;25.67;44.91;100330.05;109425;1264;22987;-76
2022/06/06 12:48:16;;;;;;;7.30;6.60;;;;;;;25.73;45.25;100326.85;109280;1261;22064;-76
2022/06/06 12:51:41;;;;;;;11.90;8.90;;;;;;;25.78;44.95;100332.29;110194;1258;21974;-76
2022/06/06 12:54:25;;;;;;;7.90;7.10;;;;;;;25.78;44.75;100334.61;110010;1270;23774;-77
2022/06/06 12:57:18;;;;;;;7.80;7.10;;;;;;;25.75;44.95;100333.68;109516;1263;22161;-77
2022/06/06 13:01:37;;;;;;;8.00;6.90;;;;;;;25.68;44.78;100340.60;109509;1268;21999;-77
2022/06/06 13:03:58;;;;;;;11.90;8.50;;;;;;;25.57;45.21;100341.71;110113;1270;23614;-78
2022/06/06 13:06:43;;;;;;;9.00;8.20;;;;;;;25.42;45.62;100335.08;110031;1270;22016;-77
2022/06/06 13:09:46;;;;;;;10.40;9.50;;;;;;;25.27;46.04;100344.77;109756;1270;22241;-75
2022/06/06 13:12:40;;;;;;;13.10;10.40;;;;;;;25.08;47.04;100353.44;109767;1270;22091;-77
2022/06/06 13:15:56;;;;;;;12.40;11.00;;;;;;;24.89;47.90;100358.27;109691;1270;22003;-77
2022/06/06 13:19:25;;;;;;;12.10;10.90;;;;;;;24.68;49.16;100359.43;110205;1261;21989;-77
2022/06/06 13:22:36;;;;;;;11.60;10.00;;;;;;;24.54;50.11;100364.42;110900;1260;22002;-75
2022/06/06 13:25:27;;;;;;;11.20;10.10;;;;;;;24.44;50.66;100359.86;111060;1261;21976;-79
2022/06/06 13:28:28;;;;;;;12.60;11.50;;;;;;;24.32;51.16;100363.70;110654;1261;23786;-84
2022/06/06 13:32:05;;;;;;;12.50;11.10;;;;;;;24.20;51.59;100368.35;110811;1257;23765;-78
2022/06/06 13:35:31;;;;;;;12.10;11.10;;;;;;;23.94;52.10;100375.85;110556;1261;21981;-79
2022/06/06 13:38:41;;;;;;;11.40;10.40;;;;;;;23.79;52.97;100373.10;110440;1261;21989;-77